Bow Heron — DYTN — position and weather

sailwx.info

Track history (hours):
 
Tides and Currents Weather Stations Pressure Air Temp Water Temp Dewpoint Dewpoint Depression Visibility Wind Speed Wind Dir Waves Ship Positions

Bow Heron

Last reported at 2017-Apr-21 00:37 UTC. Time now 2017-Apr-28 00:40 UTC.
Position N 30°50' E 032°19'.

Length 174 m; draft 10.2 m.

Type: Ship (hazmat cat C). MMSI: 548779000.

Date/timePositionNaut miles runAvg speedWind from/ knotsBaromVisibWave heightAir tempDewpointWater temp
2017-Apr-21 00:37N 30°50' E 032°19'2 9.4
2017-Apr-21 00:27N 30°52' E 032°19'4 9.4
2017-Apr-21 00:00N 30°56' E 032°19'10 9.1
2017-Apr-20 22:58N 31°05' E 032°19'4 9.5
2017-Apr-20 22:30N 31°10' E 032°18'4 8.6
2017-Apr-20 22:00N 31°14' E 032°18'6 8.5
2017-Apr-20 21:18N 31°19' E 032°22'2 5.5
2017-Apr-20 20:57N 31°21' E 032°22'2 3.7
2017-Apr-20 20:30N 31°22' E 032°20'1 1.1
2017-Apr-20 19:59N 31°22' E 032°19'0 0.0
2017-Apr-20 19:14N 31°22' E 032°19'0 0.0
2017-Apr-20 18:59N 31°22' E 032°19'0 0.0
2017-Apr-20 18:26N 31°22' E 032°19'0 0.0
2017-Apr-20 17:56N 31°22' E 032°19'0 0.0
2017-Apr-20 17:26N 31°22' E 032°19'0 0.1
2017-Apr-20 16:56N 31°22' E 032°19'0 0.2
2017-Apr-20 16:30N 31°22' E 032°19'2 3.2
2017-Apr-20 16:00N 31°23' E 032°18'5 8.6
2017-Apr-20 15:27N 31°28' E 032°16'510.7
2017-Apr-20 14:58N 31°32' E 032°12'1010.7
2017-Apr-20 14:00N 31°39' E 032°04'714.3
2017-Apr-20 13:30N 31°44' E 031°58'714.1
2017-Apr-20 13:00N 31°48' E 031°51'814.5
2017-Apr-20 12:29N 31°50' E 031°42'714.5
2017-Apr-20 12:00N 31°52' E 031°34'814.5
2017-Apr-20 11:29N 31°54' E 031°26'714.5
2017-Apr-20 11:00N 31°56' E 031°18'914.6
2017-Apr-20 10:25N 31°59' E 031°08'614.6
2017-Apr-20 09:59N 32°01' E 031°01'714.8
2017-Apr-20 09:30N 32°03' E 030°53'2814.9
2017-Apr-20 07:39N 32°11' E 030°22'15214.3
2017-Apr-19 21:01N 32°56' E 027°30'013.5
2017-Apr-19 21:00N 32°56' E 027°30'65814.7
2017-Apr-18 00:23N 36°10' E 014°46'614.3
2017-Apr-18 00:00N 36°11' E 014°40'714.2
2017-Apr-17 23:30N 36°13' E 014°31'714.6
2017-Apr-17 23:00N 36°15' E 014°23'714.8
2017-Apr-17 22:30N 36°18' E 014°14'714.8
2017-Apr-17 22:00N 36°21' E 014°06'714.7
2017-Apr-17 21:30N 36°23' E 013°57'714.9
2017-Apr-17 21:00N 36°26' E 013°49'1014.9
2017-Apr-17 20:19N 36°30' E 013°37'514.7
2017-Apr-17 20:00N 36°32' E 013°32'1014.4
2017-Apr-17 19:18N 36°36' E 013°20'414.4
2017-Apr-17 19:00N 36°38' E 013°15'914.6
2017-Apr-17 18:23N 36°41' E 013°05'67114.3
2017-Apr-15 19:31N 36°32' W 000°51'014.5
2017-Apr-15 19:30N 36°32' W 000°52'914.8
2017-Apr-15 18:55N 36°30' W 001°02'615.2
2017-Apr-15 18:30N 36°28' W 001°10'1215.4
2017-Apr-15 17:43N 36°26' W 001°25'314.2
2017-Apr-15 17:29N 36°25' W 001°29'713.8
2017-Apr-15 16:59N 36°24' W 001°37'1013.5
2017-Apr-15 16:12N 36°22' W 001°50'513.4
2017-Apr-15 15:48N 36°20' W 001°56'912.8
2017-Apr-15 15:07N 36°19' W 002°07'212.8
2017-Apr-15 15:00N 36°19' W 002°09'712.9
2017-Apr-15 14:30N 36°18' W 002°17'13614.4
2017-Apr-15 05:02N 36°01' W 005°04'217.6
2017-Apr-15 04:57N 36°01' W 005°06'613.5
2017-Apr-15 04:30N 36°04' W 005°13'713.8
2017-Apr-15 04:00N 36°04' W 005°21'3 6.3
2017-Apr-15 03:31N 36°07' W 005°22'0 0.1
2017-Apr-15 03:00N 36°07' W 005°22'0 0.0
2017-Apr-15 02:30N 36°07' W 005°22'0 0.1
2017-Apr-15 02:00N 36°07' W 005°22'0 0.0
2017-Apr-15 01:30N 36°07' W 005°22'0 0.1
2017-Apr-15 01:00N 36°07' W 005°22'0 0.1
2017-Apr-15 00:30N 36°07' W 005°22'0 0.2
2017-Apr-15 00:00N 36°07' W 005°22'0 0.1
2017-Apr-14 23:30N 36°07' W 005°22'0 0.1
2017-Apr-14 22:57N 36°07' W 005°22'0 0.1
2017-Apr-14 22:30N 36°07' W 005°22'0 0.2
2017-Apr-14 21:57N 36°07' W 005°22'0 0.3
2017-Apr-14 21:30N 36°07' W 005°22'0 0.0
2017-Apr-14 20:54N 36°07' W 005°22'0 0.1
2017-Apr-14 20:30N 36°07' W 005°22'0 0.1
2017-Apr-14 20:00N 36°07' W 005°22'0 0.0
2017-Apr-14 19:30N 36°07' W 005°22'0 0.1
2017-Apr-14 19:00N 36°07' W 005°22'0 0.0
2017-Apr-14 18:30N 36°07' W 005°22'0 0.0
2017-Apr-14 18:00N 36°07' W 005°22'0 0.0
2017-Apr-14 17:30N 36°07' W 005°22'0 0.1
2017-Apr-14 17:00N 36°07' W 005°22'1 1.5
2017-Apr-14 16:30N 36°06' W 005°21'2 3.8
2017-Apr-14 16:00N 36°05' W 005°19'3 5.5
2017-Apr-14 15:30N 36°06' W 005°16'2 5.0
2017-Apr-14 15:00N 36°07' W 005°13'2 3.1
2017-Apr-14 14:30N 36°08' W 005°12'2 2.2
2017-Apr-14 13:30N 36°10' W 005°11'1 1.3
2017-Apr-14 13:00N 36°09' W 005°11'1 1.9
2017-Apr-14 12:30N 36°08' W 005°11'0 0.8
2017-Apr-14 12:00N 36°08' W 005°11'1 1.1
2017-Apr-14 11:30N 36°08' W 005°11'3 5.4
2017-Apr-14 11:00N 36°11' W 005°11'1 1.1
2017-Apr-14 10:30N 36°11' W 005°11'1 2.3
2017-Apr-14 10:00N 36°09' W 005°11'5 9.3
2017-Apr-14 09:30N 36°05' W 005°13'6 9.5
2017-Apr-14 08:55N 36°01' W 005°17'614.5
2017-Apr-14 08:30N 35°59' W 005°24'713.7
2017-Apr-14 08:00N 35°57' W 005°32'510.5
2017-Apr-14 07:29N 35°55' W 005°39'  
2017-Apr-11 19:15N 38°15' W 023°46'314.4
2017-Apr-11 19:00N 38°15' W 023°51'714.3
2017-Apr-11 18:30N 38°15' W 023°60'714.2
2017-Apr-11 17:59N 38°16' W 024°09'714.1
2017-Apr-11 17:30N 38°15' W 024°18'713.8
2017-Apr-11 17:00N 38°14' W 024°27'714.1
2017-Apr-11 16:30N 38°14' W 024°36'714.3
2017-Apr-11 16:00N 38°13' W 024°45'714.5
2017-Apr-11 15:30N 38°13' W 024°54'714.6
2017-Apr-11 15:00N 38°12' W 025°03'714.3
2017-Apr-11 14:30N 38°12' W 025°12'1514.5
2017-Apr-11 13:31N 38°10' W 025°30'714.7
2017-Apr-11 13:01N 38°09' W 025°40'714.5
2017-Apr-11 12:30N 38°08' W 025°49'714.5
2017-Apr-11 12:01N 38°08' W 025°58'714.4
2017-Apr-11 11:30N 38°07' W 026°07'714.5
2017-Apr-11 11:00N 38°07' W 026°17'714.4
2017-Apr-11 10:30N 38°06' W 026°26'714.1
2017-Apr-11 10:01N 38°05' W 026°34'713.9
2017-Apr-11 09:30N 38°05' W 026°43'714.5
2017-Apr-11 09:00N 38°04' W 026°52'714.0
2017-Apr-11 08:30N 38°04' W 027°01'714.1
2017-Apr-11 08:00N 38°03' W 027°10'714.1
2017-Apr-11 07:30N 38°02' W 027°19'713.9
2017-Apr-11 07:00N 38°01' W 027°28'713.9
2017-Apr-11 06:30N 38°01' W 027°37'714.0
2017-Apr-11 06:00N 37°60' W 027°46'714.3
2017-Apr-11 05:31N 37°59' W 027°55'714.3
2017-Apr-11 05:00N 37°59' W 028°04'714.3
2017-Apr-11 04:30N 37°58' W 028°13'714.4
2017-Apr-11 04:00N 37°58' W 028°22'714.5
2017-Apr-11 03:30N 37°57' W 028°31'714.2
2017-Apr-11 03:00N 37°56' W 028°40'714.5
2017-Apr-11 02:30N 37°56' W 028°49'714.5
2017-Apr-11 02:00N 37°55' W 028°58'714.5
2017-Apr-11 01:30N 37°55' W 029°07'714.2
2017-Apr-11 01:00N 37°54' W 029°16'  
Track history (hours):
 
Tides and Currents Weather Stations Pressure Air Temp Water Temp Dewpoint Dewpoint Depression Visibility Wind Speed Wind Dir Waves Ship Positions

Bow Heron

Last reported at 2017-Apr-21 00:37 UTC. Time now 2017-Apr-28 00:40 UTC.
Position N 30°50' E 032°19'.

Length 174 m; draft 10.2 m.

Type: Ship (hazmat cat C). MMSI: 548779000.

Date/timePositionNaut miles runAvg speedWind from/ knotsBaromVisibWave heightAir tempDewpointWater temp
2017-Apr-21 00:37N 30°50' E 032°19'2 9.4
2017-Apr-21 00:27N 30°52' E 032°19'4 9.4
2017-Apr-21 00:00N 30°56' E 032°19'10 9.1
2017-Apr-20 22:58N 31°05' E 032°19'4 9.5
2017-Apr-20 22:30N 31°10' E 032°18'4 8.6
2017-Apr-20 22:00N 31°14' E 032°18'6 8.5
2017-Apr-20 21:18N 31°19' E 032°22'2 5.5
2017-Apr-20 20:57N 31°21' E 032°22'2 3.7
2017-Apr-20 20:30N 31°22' E 032°20'1 1.1
2017-Apr-20 19:59N 31°22' E 032°19'0 0.0
2017-Apr-20 19:14N 31°22' E 032°19'0 0.0
2017-Apr-20 18:59N 31°22' E 032°19'0 0.0
2017-Apr-20 18:26N 31°22' E 032°19'0 0.0
2017-Apr-20 17:56N 31°22' E 032°19'0 0.0
2017-Apr-20 17:26N 31°22' E 032°19'0 0.1
2017-Apr-20 16:56N 31°22' E 032°19'0 0.2
2017-Apr-20 16:30N 31°22' E 032°19'2 3.2
2017-Apr-20 16:00N 31°23' E 032°18'5 8.6
2017-Apr-20 15:27N 31°28' E 032°16'510.7
2017-Apr-20 14:58N 31°32' E 032°12'1010.7
2017-Apr-20 14:00N 31°39' E 032°04'714.3
2017-Apr-20 13:30N 31°44' E 031°58'714.1
2017-Apr-20 13:00N 31°48' E 031°51'814.5
2017-Apr-20 12:29N 31°50' E 031°42'714.5
2017-Apr-20 12:00N 31°52' E 031°34'814.5
2017-Apr-20 11:29N 31°54' E 031°26'714.5
2017-Apr-20 11:00N 31°56' E 031°18'914.6
2017-Apr-20 10:25N 31°59' E 031°08'614.6
2017-Apr-20 09:59N 32°01' E 031°01'714.8
2017-Apr-20 09:30N 32°03' E 030°53'2814.9
2017-Apr-20 07:39N 32°11' E 030°22'15214.3
2017-Apr-19 21:01N 32°56' E 027°30'013.5
2017-Apr-19 21:00N 32°56' E 027°30'65814.7
2017-Apr-18 00:23N 36°10' E 014°46'614.3
2017-Apr-18 00:00N 36°11' E 014°40'714.2
2017-Apr-17 23:30N 36°13' E 014°31'714.6
2017-Apr-17 23:00N 36°15' E 014°23'714.8
2017-Apr-17 22:30N 36°18' E 014°14'714.8
2017-Apr-17 22:00N 36°21' E 014°06'714.7
2017-Apr-17 21:30N 36°23' E 013°57'714.9
2017-Apr-17 21:00N 36°26' E 013°49'1014.9
2017-Apr-17 20:19N 36°30' E 013°37'514.7
2017-Apr-17 20:00N 36°32' E 013°32'1014.4
2017-Apr-17 19:18N 36°36' E 013°20'414.4
2017-Apr-17 19:00N 36°38' E 013°15'914.6
2017-Apr-17 18:23N 36°41' E 013°05'67114.3
2017-Apr-15 19:31N 36°32' W 000°51'014.5
2017-Apr-15 19:30N 36°32' W 000°52'914.8
2017-Apr-15 18:55N 36°30' W 001°02'615.2
2017-Apr-15 18:30N 36°28' W 001°10'1215.4
2017-Apr-15 17:43N 36°26' W 001°25'314.2
2017-Apr-15 17:29N 36°25' W 001°29'713.8
2017-Apr-15 16:59N 36°24' W 001°37'1013.5
2017-Apr-15 16:12N 36°22' W 001°50'513.4
2017-Apr-15 15:48N 36°20' W 001°56'912.8
2017-Apr-15 15:07N 36°19' W 002°07'212.8
2017-Apr-15 15:00N 36°19' W 002°09'712.9
2017-Apr-15 14:30N 36°18' W 002°17'13614.4
2017-Apr-15 05:02N 36°01' W 005°04'217.6
2017-Apr-15 04:57N 36°01' W 005°06'613.5
2017-Apr-15 04:30N 36°04' W 005°13'713.8
2017-Apr-15 04:00N 36°04' W 005°21'3 6.3
2017-Apr-15 03:31N 36°07' W 005°22'0 0.1
2017-Apr-15 03:00N 36°07' W 005°22'0 0.0
2017-Apr-15 02:30N 36°07' W 005°22'0 0.1
2017-Apr-15 02:00N 36°07' W 005°22'0 0.0
2017-Apr-15 01:30N 36°07' W 005°22'0 0.1
2017-Apr-15 01:00N 36°07' W 005°22'0 0.1
2017-Apr-15 00:30N 36°07' W 005°22'0 0.2
2017-Apr-15 00:00N 36°07' W 005°22'0 0.1
2017-Apr-14 23:30N 36°07' W 005°22'0 0.1
2017-Apr-14 22:57N 36°07' W 005°22'0 0.1
2017-Apr-14 22:30N 36°07' W 005°22'0 0.2
2017-Apr-14 21:57N 36°07' W 005°22'0 0.3
2017-Apr-14 21:30N 36°07' W 005°22'0 0.0
2017-Apr-14 20:54N 36°07' W 005°22'0 0.1
2017-Apr-14 20:30N 36°07' W 005°22'0 0.1
2017-Apr-14 20:00N 36°07' W 005°22'0 0.0
2017-Apr-14 19:30N 36°07' W 005°22'0 0.1
2017-Apr-14 19:00N 36°07' W 005°22'0 0.0
2017-Apr-14 18:30N 36°07' W 005°22'0 0.0
2017-Apr-14 18:00N 36°07' W 005°22'0 0.0
2017-Apr-14 17:30N 36°07' W 005°22'0 0.1
2017-Apr-14 17:00N 36°07' W 005°22'1 1.5
2017-Apr-14 16:30N 36°06' W 005°21'2 3.8
2017-Apr-14 16:00N 36°05' W 005°19'3 5.5
2017-Apr-14 15:30N 36°06' W 005°16'2 5.0
2017-Apr-14 15:00N 36°07' W 005°13'2 3.1
2017-Apr-14 14:30N 36°08' W 005°12'2 2.2
2017-Apr-14 13:30N 36°10' W 005°11'1 1.3
2017-Apr-14 13:00N 36°09' W 005°11'1 1.9
2017-Apr-14 12:30N 36°08' W 005°11'0 0.8
2017-Apr-14 12:00N 36°08' W 005°11'1 1.1
2017-Apr-14 11:30N 36°08' W 005°11'3 5.4
2017-Apr-14 11:00N 36°11' W 005°11'1 1.1
2017-Apr-14 10:30N 36°11' W 005°11'1 2.3
2017-Apr-14 10:00N 36°09' W 005°11'5 9.3
2017-Apr-14 09:30N 36°05' W 005°13'6 9.5
2017-Apr-14 08:55N 36°01' W 005°17'614.5
2017-Apr-14 08:30N 35°59' W 005°24'713.7
2017-Apr-14 08:00N 35°57' W 005°32'510.5
2017-Apr-14 07:29N 35°55' W 005°39'  
2017-Apr-11 19:15N 38°15' W 023°46'314.4
2017-Apr-11 19:00N 38°15' W 023°51'714.3
2017-Apr-11 18:30N 38°15' W 023°60'714.2
2017-Apr-11 17:59N 38°16' W 024°09'714.1
2017-Apr-11 17:30N 38°15' W 024°18'713.8
2017-Apr-11 17:00N 38°14' W 024°27'714.1
2017-Apr-11 16:30N 38°14' W 024°36'714.3
2017-Apr-11 16:00N 38°13' W 024°45'714.5
2017-Apr-11 15:30N 38°13' W 024°54'714.6
2017-Apr-11 15:00N 38°12' W 025°03'714.3
2017-Apr-11 14:30N 38°12' W 025°12'1514.5
2017-Apr-11 13:31N 38°10' W 025°30'714.7
2017-Apr-11 13:01N 38°09' W 025°40'714.5
2017-Apr-11 12:30N 38°08' W 025°49'714.5
2017-Apr-11 12:01N 38°08' W 025°58'714.4
2017-Apr-11 11:30N 38°07' W 026°07'714.5
2017-Apr-11 11:00N 38°07' W 026°17'714.4
2017-Apr-11 10:30N 38°06' W 026°26'714.1
2017-Apr-11 10:01N 38°05' W 026°34'713.9
2017-Apr-11 09:30N 38°05' W 026°43'714.5
2017-Apr-11 09:00N 38°04' W 026°52'714.0
2017-Apr-11 08:30N 38°04' W 027°01'714.1
2017-Apr-11 08:00N 38°03' W 027°10'714.1
2017-Apr-11 07:30N 38°02' W 027°19'713.9
2017-Apr-11 07:00N 38°01' W 027°28'713.9
2017-Apr-11 06:30N 38°01' W 027°37'714.0
2017-Apr-11 06:00N 37°60' W 027°46'714.3
2017-Apr-11 05:31N 37°59' W 027°55'714.3
2017-Apr-11 05:00N 37°59' W 028°04'714.3
2017-Apr-11 04:30N 37°58' W 028°13'714.4
2017-Apr-11 04:00N 37°58' W 028°22'714.5
2017-Apr-11 03:30N 37°57' W 028°31'714.2
2017-Apr-11 03:00N 37°56' W 028°40'714.5
2017-Apr-11 02:30N 37°56' W 028°49'714.5
2017-Apr-11 02:00N 37°55' W 028°58'714.5
2017-Apr-11 01:30N 37°55' W 029°07'714.2
2017-Apr-11 01:00N 37°54' W 029°16'  

Dump ship's entire track history